Time;durP1;ratioP1;P1;durP2;ratioP2;P2;SDS_P1;SDS_P2;PMS_P1;PMS_P2;Temp;Humidity;BMP_temperature;BMP_pressure;BME280_temperature;BME280_humidity;BME280_pressure;Samples;Min_cycle;Max_cycle;Signal;HPM_P1;HPM_P2
2021/12/04 00:00:06;;;;;;;;;;;;;;;0.62;83.65;95066.28;5153407;27;19927;-83
2021/12/04 00:02:34;;;;;;;;;;;;;;;0.58;82.76;95062.50;5152221;27;20303;-79
2021/12/04 00:05:04;;;;;;;;;;;;;;;0.59;82.82;95052.94;5155699;27;19927;-82
2021/12/04 00:07:33;;;;;;;;;;;;;;;0.62;81.81;95055.94;5149399;27;19947;-82
2021/12/04 00:10:04;;;;;;;;;;;;;;;0.65;82.46;95050.34;5148678;27;19935;-82
2021/12/04 00:12:31;;;;;;;;;;;;;;;0.74;82.03;95040.56;5148961;27;19934;-82
2021/12/04 00:14:59;;;;;;;;;;;;;;;0.65;80.92;95029.66;5146700;27;19959;-84
2021/12/04 00:17:27;;;;;;;;;;;;;;;0.66;82.32;95023.47;5146707;27;20181;-81
2021/12/04 00:19:52;;;;;;;;;;;;;;;0.68;80.99;95028.44;5149956;27;20375;-83
2021/12/04 00:22:18;;;;;;;;;;;;;;;0.72;80.94;95019.28;5149647;27;19924;-81
2021/12/04 00:24:43;;;;;;;;;;;;;;;0.74;81.25;95031.00;5155778;27;19961;-83
2021/12/04 00:27:10;;;;;;;;;;;;;;;0.67;81.66;95014.72;5151490;27;19951;-81
2021/12/04 00:29:35;;;;;;;;;;;;;;;0.77;82.02;95014.28;5149543;27;19924;-83
2021/12/04 00:32:11;;;;;;;;;;;;;;;0.71;82.11;95012.53;5149095;27;20035;-82
2021/12/04 00:34:41;;;;;;;;;;;;;;;0.83;82.51;95007.50;5151502;27;19935;-83
2021/12/04 00:50:29;;;;;;;;;;;;;;;0.63;82.02;94985.06;5153639;27;19945;-83
2021/12/04 00:52:55;;;;;;;;;;;;;;;0.73;82.28;94979.44;5152214;27;19923;-82
2021/12/04 00:55:22;;;;;;;;;;;;;;;0.68;81.93;94974.09;5150199;27;20462;-83
2021/12/04 00:57:49;;;;;;;;;;;;;;;0.72;81.79;94970.91;5150505;27;19923;-82
2021/12/04 01:00:15;;;;;;;;;;;;;;;0.76;82.49;94964.31;5151662;27;19923;-82
2021/12/04 01:02:41;;;;;;;;;;;;;;;0.81;81.36;94968.88;5150653;27;19930;-82
2021/12/04 01:05:07;;;;;;;;;;;;;;;0.79;81.61;94969.06;5154771;27;19948;-81
2021/12/04 01:07:34;;;;;;;;;;;;;;;0.84;81.37;94963.28;5164097;27;19911;-82
2021/12/04 01:09:59;;;;;;;;;;;;;;;0.83;81.15;94956.53;5165541;27;19911;-80
2021/12/04 01:12:24;;;;;;;;;;;;;;;0.86;81.58;94956.13;5165458;27;19914;-80
2021/12/04 01:14:51;;;;;;;;;;;;;;;1.10;80.82;94952.00;5164591;27;19975;-79
2021/12/04 01:17:16;;;;;;;;;;;;;;;1.07;80.52;94951.63;5165497;27;19917;-81
2021/12/04 01:19:42;;;;;;;;;;;;;;;0.94;80.68;94960.25;5165330;27;19911;-81
2021/12/04 01:22:07;;;;;;;;;;;;;;;1.02;80.76;94952.25;5165260;27;19931;-81
2021/12/04 01:24:33;;;;;;;;;;;;;;;1.06;80.68;94950.84;5154505;27;20022;-82
2021/12/04 01:27:00;;;;;;;;;;;;;;;1.02;80.90;94950.47;5148903;27;20014;-82
2021/12/04 01:29:26;;;;;;;;;;;;;;;1.05;80.80;94944.88;5149634;27;19995;-81
2021/12/04 01:31:52;;;;;;;;;;;;;;;1.06;80.66;94945.66;5148634;27;19923;-81
2021/12/04 01:34:18;;;;;;;;;;;;;;;1.20;79.86;94943.81;5156693;27;19927;-80
2021/12/04 01:36:43;;;;;;;;;;;;;;;1.09;79.63;94940.06;5148513;27;19923;-81
2021/12/04 01:39:10;;;;;;;;;;;;;;;1.18;78.97;94936.22;5153146;27;19923;-82
2021/12/04 01:41:35;;;;;;;;;;;;;;;1.16;79.45;94914.91;5155208;27;19945;-81
2021/12/04 01:44:02;;;;;;;;;;;;;;;1.00;79.95;94920.59;5158776;27;19923;-82
2021/12/04 01:46:28;;;;;;;;;;;;;;;1.02;79.88;94905.63;5159699;27;19911;-80
2021/12/04 01:48:55;;;;;;;;;;;;;;;1.14;78.88;94900.59;5160370;27;19911;-80
2021/12/04 01:51:20;;;;;;;;;;;;;;;1.16;78.35;94899.38;5152181;27;19924;-83
2021/12/04 01:53:45;;;;;;;;;;;;;;;1.17;77.94;94895.00;5150260;27;19977;-82
2021/12/04 01:56:11;;;;;;;;;;;;;;;1.13;77.90;94886.03;5150534;27;19923;-81
2021/12/04 01:58:36;;;;;;;;;;;;;;;1.29;77.10;94894.13;5149741;27;19924;-82
2021/12/04 02:01:07;;;;;;;;;;;;;;;1.03;76.74;94883.94;5148294;27;19962;-82
2021/12/04 02:03:33;;;;;;;;;;;;;;;1.04;77.29;94885.53;5149767;27;19931;-84
2021/12/04 02:06:00;;;;;;;;;;;;;;;0.92;78.91;94882.00;5149529;27;19923;-84
2021/12/04 02:08:25;;;;;;;;;;;;;;;0.63;84.33;94871.19;5151082;27;19935;-83
2021/12/04 02:10:54;;;;;;;;;;;;;;;0.30;88.01;94889.44;5149005;27;19953;-84
2021/12/04 02:13:20;;;;;;;;;;;;;;;0.07;91.04;94879.56;5149445;27;20044;-84
2021/12/04 02:15:46;;;;;;;;;;;;;;;0.03;92.92;94883.53;5150981;27;19992;-84
2021/12/04 02:18:12;;;;;;;;;;;;;;;-0.07;94.57;94867.66;5151657;27;19930;-84
2021/12/04 02:20:39;;;;;;;;;;;;;;;-0.05;95.48;94865.69;5152157;27;20306;-83
2021/12/04 02:23:05;;;;;;;;;;;;;;;-0.11;96.49;94858.72;5160448;27;19938;-84
2021/12/04 02:25:31;;;;;;;;;;;;;;;-0.05;97.05;94860.50;5155830;27;19923;-84
2021/12/04 02:28:00;;;;;;;;;;;;;;;-0.08;97.81;94860.91;5160974;27;19926;-84
2021/12/04 02:30:26;;;;;;;;;;;;;;;-0.27;98.69;94842.66;5160984;27;19939;-84
2021/12/04 02:32:52;;;;;;;;;;;;;;;-0.16;99.28;94837.84;5158228;27;19958;-84
2021/12/04 02:35:18;;;;;;;;;;;;;;;-0.14;99.40;94838.44;5159605;27;19907;-84
2021/12/04 02:37:46;;;;;;;;;;;;;;;-0.23;100.00;94834.50;5159432;27;19911;-83
2021/12/04 02:40:12;;;;;;;;;;;;;;;-0.21;100.00;94824.75;5160385;27;19934;-82
2021/12/04 02:42:39;;;;;;;;;;;;;;;-0.22;100.00;94823.16;5160356;27;19928;-83
2021/12/04 02:45:05;;;;;;;;;;;;;;;-0.17;100.00;94815.59;5160769;27;19929;-82
2021/12/04 02:47:31;;;;;;;;;;;;;;;-0.27;100.00;94811.66;5155377;27;20514;-85
2021/12/04 02:49:59;;;;;;;;;;;;;;;-0.20;100.00;94809.03;5151067;27;19931;-86
2021/12/04 02:52:25;;;;;;;;;;;;;;;-0.11;100.00;94791.50;5150001;27;20291;-84
2021/12/04 02:54:52;;;;;;;;;;;;;;;-0.21;100.00;94796.34;5141831;22;20015;-80
2021/12/04 02:57:19;;;;;;;;;;;;;;;-0.18;100.00;94788.16;5117959;28;20332;-81
2021/12/04 02:59:45;;;;;;;;;;;;;;;-0.28;100.00;94793.75;5099272;28;19931;-83
2021/12/04 03:02:17;;;;;;;;;;;;;;;-0.31;100.00;94787.22;5118407;28;19924;-81
2021/12/04 03:04:42;;;;;;;;;;;;;;;-0.28;100.00;94789.38;5101214;28;19930;-81
2021/12/04 03:07:08;;;;;;;;;;;;;;;-0.20;100.00;94775.44;5101817;28;19963;-81
2021/12/04 03:09:36;;;;;;;;;;;;;;;-0.47;100.00;94777.31;5121732;28;19924;-81
2021/12/04 03:12:04;;;;;;;;;;;;;;;-0.38;100.00;94762.38;5101739;28;19924;-82
2021/12/04 03:14:29;;;;;;;;;;;;;;;-0.25;100.00;94761.56;5119708;28;19954;-82
2021/12/04 03:16:56;;;;;;;;;;;;;;;-0.33;100.00;94740.09;5119752;28;19995;-82
2021/12/04 03:19:21;;;;;;;;;;;;;;;-0.22;100.00;94741.25;5120703;28;19966;-81
2021/12/04 03:21:49;;;;;;;;;;;;;;;-0.30;100.00;94742.28;5121197;28;20373;-82
2021/12/04 03:24:16;;;;;;;;;;;;;;;-0.19;100.00;94740.84;5103339;28;19924;-82
2021/12/04 03:26:42;;;;;;;;;;;;;;;-0.20;100.00;94731.53;5114829;28;19924;-82
2021/12/04 03:29:12;;;;;;;;;;;;;;;-0.16;100.00;94735.28;5109003;28;20029;-82
2021/12/04 03:42:18;;;;;;;;;;;;;;;-0.13;100.00;94723.72;5123200;28;20000;-82
2021/12/04 03:44:45;;;;;;;;;;;;;;;-0.13;100.00;94713.41;5102661;28;19924;-82
2021/12/04 03:47:11;;;;;;;;;;;;;;;-0.14;100.00;94710.03;5102052;28;19924;-82
2021/12/04 03:49:37;;;;;;;;;;;;;;;-0.06;100.00;94708.97;5128424;28;19934;-81
2021/12/04 03:52:03;;;;;;;;;;;;;;;-0.04;100.00;94696.66;5137242;28;19927;-82
2021/12/04 03:54:31;;;;;;;;;;;;;;;0.02;100.00;94703.59;5137285;28;19923;-82
2021/12/04 03:57:05;;;;;;;;;;;;;;;-0.06;100.00;94703.81;5118462;28;19924;-81
2021/12/04 03:59:33;;;;;;;;;;;;;;;-0.05;100.00;94689.91;5133164;28;19995;-82
2021/12/04 04:02:00;;;;;;;;;;;;;;;0.06;100.00;94697.00;5118956;28;20032;-82
2021/12/04 04:04:28;;;;;;;;;;;;;;;0.11;100.00;94689.44;5117892;28;19924;-82
2021/12/04 04:06:53;;;;;;;;;;;;;;;0.08;100.00;94689.81;5109163;28;19924;-81
2021/12/04 04:09:19;;;;;;;;;;;;;;;0.02;100.00;94682.13;5121369;28;19924;-82
2021/12/04 04:11:46;;;;;;;;;;;;;;;0.07;100.00;94677.91;5118221;28;20281;-82
2021/12/04 04:14:14;;;;;;;;;;;;;;;0.15;100.00;94669.88;5118866;28;20018;-82
2021/12/04 04:16:40;;;;;;;;;;;;;;;0.10;100.00;94667.13;5118031;28;19923;-83
2021/12/04 04:19:11;;;;;;;;;;;;;;;0.12;100.00;94665.16;5117616;28;20047;-83
2021/12/04 04:21:44;;;;;;;;;;;;;;;0.10;100.00;94661.19;5099410;28;20460;-83
2021/12/04 04:24:11;;;;;;;;;;;;;;;0.12;100.00;94657.41;5116888;28;19931;-83
2021/12/04 04:26:39;;;;;;;;;;;;;;;0.05;100.00;94651.44;5117193;28;19927;-83
2021/12/04 04:29:04;;;;;;;;;;;;;;;0.05;100.00;94645.50;5100426;28;19966;-83
2021/12/04 04:31:30;;;;;;;;;;;;;;;0.03;100.00;94637.16;5100738;28;19924;-83
2021/12/04 04:34:01;;;;;;;;;;;;;;;0.07;100.00;94636.53;5099208;28;19923;-84
2021/12/04 05:00:35;;;;;;;;;;;;;;;0.31;100.00;94605.75;5117804;28;19930;-85
2021/12/04 05:11:35;;;;;;;;;;;;;;;0.55;100.00;94589.44;5124736;28;19946;-83
2021/12/04 05:14:04;;;;;;;;;;;;;;;0.39;100.00;94583.00;5102512;28;19923;-83
2021/12/04 05:16:40;;;;;;;;;;;;;;;0.44;100.00;94574.59;5100320;28;19923;-84
2021/12/04 05:19:13;;;;;;;;;;;;;;;0.38;100.00;94573.66;5119549;28;19928;-83
2021/12/04 05:21:38;;;;;;;;;;;;;;;0.46;100.00;94570.00;5122856;28;19931;-83
2021/12/04 05:24:05;;;;;;;;;;;;;;;0.55;100.00;94560.19;5122622;28;20382;-83
2021/12/04 05:26:30;;;;;;;;;;;;;;;0.63;100.00;94565.84;5122633;28;19975;-83
2021/12/04 05:28:58;;;;;;;;;;;;;;;0.62;100.00;94566.88;5123412;28;19923;-82
2021/12/04 05:31:26;;;;;;;;;;;;;;;0.70;100.00;94543.31;5130554;28;19923;-82
2021/12/04 05:33:51;;;;;;;;;;;;;;;0.64;100.00;94544.13;5101622;28;20006;-83
2021/12/04 05:36:17;;;;;;;;;;;;;;;0.67;100.00;94551.50;5119838;28;20393;-83
2021/12/04 05:38:42;;;;;;;;;;;;;;;0.81;100.00;94538.41;5119335;28;19924;-82
2021/12/04 05:41:09;;;;;;;;;;;;;;;0.75;100.00;94543.47;5119914;28;19993;-82
2021/12/04 05:43:36;;;;;;;;;;;;;;;0.73;100.00;94529.91;5119694;28;19923;-82
2021/12/04 05:46:09;;;;;;;;;;;;;;;0.78;100.00;94531.88;5120004;28;20009;-82
2021/12/04 05:56:58;;;;;;;;;;;;;;;1.00;100.00;94543.38;5074053;28;19924;-81
2021/12/04 05:59:24;;;;;;;;;;;;;;;1.08;100.00;94513.00;5102643;28;19924;-82
2021/12/04 06:01:49;;;;;;;;;;;;;;;1.10;100.00;94539.47;5124775;28;19935;-81
2021/12/04 06:04:15;;;;;;;;;;;;;;;1.17;100.00;94540.19;5128569;28;19923;-81
2021/12/04 06:06:43;;;;;;;;;;;;;;;1.19;100.00;94536.38;5131581;28;19962;-81
2021/12/04 06:09:09;;;;;;;;;;;;;;;1.26;100.00;94525.94;5115735;28;19951;-81
2021/12/04 06:11:36;;;;;;;;;;;;;;;1.26;100.00;94529.31;5110842;28;19977;-82
2021/12/04 06:14:06;;;;;;;;;;;;;;;1.29;100.00;94531.47;5123105;28;19924;-82
2021/12/04 06:16:31;;;;;;;;;;;;;;;1.33;100.00;94531.81;5136654;28;19923;-82
2021/12/04 06:18:58;;;;;;;;;;;;;;;1.38;100.00;94528.56;5136283;28;19930;-82
2021/12/04 06:24:18;;;;;;;;;;;;;;;1.51;100.00;94520.63;5084302;28;19956;-80
2021/12/04 06:26:43;;;;;;;;;;;;;;;1.45;100.00;94514.50;5114427;28;19954;-81
2021/12/04 06:29:10;;;;;;;;;;;;;;;1.49;100.00;94520.03;5119582;28;19942;-81
2021/12/04 06:31:36;;;;;;;;;;;;;;;1.62;100.00;94525.06;5118665;28;19923;-81
2021/12/04 06:34:01;;;;;;;;;;;;;;;1.68;100.00;94524.16;5118952;28;19953;-81
2021/12/04 06:36:26;;;;;;;;;;;;;;;1.67;100.00;94527.78;5118838;28;19924;-81
2021/12/04 06:38:52;;;;;;;;;;;;;;;1.73;100.00;94526.88;5100182;28;19979;-80
2021/12/04 06:41:18;;;;;;;;;;;;;;;1.70;100.00;94529.13;5100351;28;19924;-81
2021/12/04 06:43:52;;;;;;;;;;;;;;;1.74;100.00;94523.28;5122758;28;19947;-80
2021/12/04 06:46:20;;;;;;;;;;;;;;;1.78;100.00;94516.66;5119936;28;19927;-81
2021/12/04 06:49:04;;;;;;;;;;;;;;;1.78;100.00;94524.44;5118087;28;19930;-80
2021/12/04 06:51:39;;;;;;;;;;;;;;;1.79;100.00;94520.03;5118387;28;19965;-80
2021/12/04 06:56:34;;;;;;;;;;;;;;;1.87;100.00;94501.53;5117275;28;19946;-80
2021/12/04 06:59:05;;;;;;;;;;;;;;;1.96;100.00;94509.81;5099542;28;20382;-80
2021/12/04 07:01:32;;;;;;;;;;;;;;;1.93;100.00;94505.84;5117776;28;20302;-80
2021/12/04 07:03:57;;;;;;;;;;;;;;;2.00;100.00;94506.53;5117364;28;19923;-80
2021/12/04 07:06:25;;;;;;;;;;;;;;;2.02;100.00;94495.94;5099006;28;19946;-80
2021/12/04 07:08:50;;;;;;;;;;;;;;;2.06;100.00;94497.06;5098604;28;20034;-80
2021/12/04 07:11:16;;;;;;;;;;;;;;;2.18;100.00;94497.88;5117089;28;19951;-80
2021/12/04 07:13:43;;;;;;;;;;;;;;;2.19;100.00;94494.25;5123500;28;19931;-80
2021/12/04 07:16:12;;;;;;;;;;;;;;;2.27;100.00;94488.75;5119933;28;19928;-80
2021/12/04 07:18:39;;;;;;;;;;;;;;;2.26;100.00;94494.13;5105718;28;20299;-80
2021/12/04 07:21:05;;;;;;;;;;;;;;;2.34;100.00;94484.22;5106211;28;19924;-80
2021/12/04 07:23:31;;;;;;;;;;;;;;;2.33;100.00;94482.63;5104402;28;19950;-80
2021/12/04 07:25:58;;;;;;;;;;;;;;;2.41;100.00;94468.53;5099885;28;19969;-80
2021/12/04 07:28:24;;;;;;;;;;;;;;;2.41;100.00;94480.72;5116538;28;19923;-80
2021/12/04 07:30:49;;;;;;;;;;;;;;;2.44;100.00;94485.47;5118332;28;20310;-80
2021/12/04 07:33:15;;;;;;;;;;;;;;;2.47;100.00;94487.59;5118479;28;20326;-80
2021/12/04 07:35:42;;;;;;;;;;;;;;;2.50;100.00;94485.34;5099901;28;20000;-80
2021/12/04 07:38:07;;;;;;;;;;;;;;;2.53;100.00;94495.28;5117755;28;19977;-80
2021/12/04 07:40:35;;;;;;;;;;;;;;;2.55;100.00;94495.03;5116913;28;19928;-80
2021/12/04 07:43:04;;;;;;;;;;;;;;;2.57;100.00;94480.00;5115541;28;20034;-80
2021/12/04 07:45:30;;;;;;;;;;;;;;;2.67;100.00;94490.63;5116691;28;20322;-81
2021/12/04 07:47:55;;;;;;;;;;;;;;;2.68;100.00;94494.78;5098151;28;20030;-81
2021/12/04 07:50:20;;;;;;;;;;;;;;;2.67;100.00;94489.81;5097880;28;19966;-81
2021/12/04 07:52:49;;;;;;;;;;;;;;;2.76;100.00;94478.88;5132214;27;19924;-80
2021/12/04 07:55:14;;;;;;;;;;;;;;;2.75;100.00;94492.88;5117145;28;20474;-80
2021/12/04 07:57:39;;;;;;;;;;;;;;;2.82;100.00;94493.53;5117034;28;19959;-80
2021/12/04 08:00:07;;;;;;;;;;;;;;;2.83;100.00;94489.91;5116092;28;19934;-79
2021/12/04 08:02:35;;;;;;;;;;;;;;;2.82;100.00;94493.53;5115080;28;20382;-79
2021/12/04 08:05:02;;;;;;;;;;;;;;;2.81;100.00;94485.97;5116949;28;19924;-80
2021/12/04 08:07:28;;;;;;;;;;;;;;;2.86;100.00;94483.47;5120147;28;20275;-79
2021/12/04 08:09:57;;;;;;;;;;;;;;;2.85;100.00;94480.09;5119557;28;19935;-80
2021/12/04 08:12:23;;;;;;;;;;;;;;;2.85;100.00;94477.50;5116274;28;19924;-80
2021/12/04 08:14:48;;;;;;;;;;;;;;;2.96;100.00;94464.69;5097706;28;20372;-80
2021/12/04 08:17:14;;;;;;;;;;;;;;;2.98;100.00;94475.66;5116434;28;19923;-80
2021/12/04 08:19:39;;;;;;;;;;;;;;;3.03;100.00;94478.34;5116824;28;19924;-81
2021/12/04 08:22:05;;;;;;;;;;;;;;;2.98;100.00;94458.25;5098645;28;19927;-80
2021/12/04 08:24:32;;;;;;;;;;;;;;;3.16;100.00;94472.88;5098282;28;20383;-79
2021/12/04 08:27:01;;;;;;;;;;;;;;;3.17;100.00;94474.44;5116726;28;19930;-79
2021/12/04 08:29:26;;;;;;;;;;;;;;;3.14;100.00;94460.13;5118790;28;19924;-79
2021/12/04 08:31:52;;;;;;;;;;;;;;;3.26;100.00;94472.28;5123780;28;19977;-80
2021/12/04 08:34:18;;;;;;;;;;;;;;;3.25;100.00;94471.50;5118477;28;19923;-80
2021/12/04 08:36:44;;;;;;;;;;;;;;;3.24;100.00;94467.31;5116362;28;20409;-80
2021/12/04 08:39:09;;;;;;;;;;;;;;;3.41;100.00;94470.75;5116730;28;19924;-80
2021/12/04 08:41:35;;;;;;;;;;;;;;;3.38;100.00;94479.00;5098107;28;19931;-79
2021/12/04 08:44:05;;;;;;;;;;;;;;;3.36;100.00;94467.25;5116858;28;20380;-80
2021/12/04 08:46:31;;;;;;;;;;;;;;;3.37;100.00;94474.03;5099315;28;20019;-80
2021/12/04 08:48:57;;;;;;;;;;;;;;;3.38;100.00;94473.78;5116531;28;19924;-80
2021/12/04 08:51:23;;;;;;;;;;;;;;;3.37;100.00;94464.41;5118501;28;19982;-79
2021/12/04 08:56:51;;;;;;;;;;;;;;;3.54;100.00;94471.47;5140200;27;20461;-79
2021/12/04 08:59:18;;;;;;;;;;;;;;;3.62;100.00;94471.88;5144442;27;19955;-78
2021/12/04 09:01:43;;;;;;;;;;;;;;;3.58;100.00;94469.97;5146448;27;19927;-78
2021/12/04 09:04:17;;;;;;;;;;;;;;;3.68;100.00;94470.16;5152395;27;20303;-78
2021/12/04 09:06:45;;;;;;;;;;;;;;;3.69;100.00;94466.53;5149153;27;20115;-77
2021/12/04 09:09:11;;;;;;;;;;;;;;;3.80;100.00;94459.66;5148077;27;19923;-77
2021/12/04 09:11:38;;;;;;;;;;;;;;;3.81;100.00;94459.44;5147203;27;20306;-80
2021/12/04 09:14:07;;;;;;;;;;;;;;;3.89;100.00;94458.25;5146919;27;20421;-79
2021/12/04 09:16:36;;;;;;;;;;;;;;;4.02;100.00;94449.34;5143176;27;19934;-78
2021/12/04 09:19:02;;;;;;;;;;;;;;;4.09;100.00;94452.56;5144183;27;19923;-79
2021/12/04 09:21:30;;;;;;;;;;;;;;;4.11;100.00;94468.75;5148252;27;19921;-79
2021/12/04 09:24:07;;;;;;;;;;;;;;;4.13;100.00;94467.47;5153383;27;19935;-78
2021/12/04 09:32:39;;;;;;;;;;;;;;;4.22;100.00;94460.06;5137587;27;19975;-78
2021/12/04 11:38:53;;;;;;;7.05;2.28;;;;;;;6.87;100.00;94279.63;5091523;28;20056;-77
2021/12/04 11:44:13;;;;;;;6.40;2.40;;;;;;;6.80;99.21;94268.66;5092167;28;20089;-76
2021/12/04 11:49:14;;;;;;;6.50;2.20;;;;;;;7.00;98.82;94273.91;5091570;28;19908;-77
2021/12/04 11:51:56;;;;;;;4.78;1.60;;;;;;;6.92;98.21;94255.31;5094241;28;20361;-78
2021/12/04 11:54:23;;;;;;;4.55;1.58;;;;;;;6.90;98.48;94246.97;5089662;28;20464;-76
2021/12/04 11:56:58;;;;;;;5.03;1.80;;;;;;;7.23;97.49;94262.16;5091684;28;20048;-77
2021/12/04 11:59:26;;;;;;;4.55;1.77;;;;;;;7.14;97.89;94242.00;5091318;28;20064;-77
2021/12/04 12:01:55;;;;;;;4.95;1.90;;;;;;;7.27;97.28;94259.81;5074234;28;20412;-76
2021/12/04 12:04:32;;;;;;;5.40;1.58;;;;;;;7.13;97.12;94250.91;5091021;28;20087;-76
2021/12/04 12:07:10;;;;;;;3.33;1.35;;;;;;;7.14;97.26;94247.22;5091156;28;20120;-76
2021/12/04 12:09:37;;;;;;;5.07;1.50;;;;;;;7.17;96.63;94251.94;5103530;28;20130;-76
2021/12/04 12:12:05;;;;;;;6.68;2.28;;;;;;;7.21;96.84;94250.38;5108031;28;20044;-77
2021/12/04 12:14:36;;;;;;;4.22;1.50;;;;;;;7.15;96.43;94243.56;5099291;28;20040;-78
2021/12/04 12:17:03;;;;;;;4.15;1.45;;;;;;;7.11;96.34;94235.47;5092891;28;20424;-77
2021/12/04 12:19:37;;;;;;;4.82;1.50;;;;;;;7.12;96.31;94244.88;5095031;28;20105;-77
2021/12/04 12:25:07;;;;;;;4.03;1.23;;;;;;;7.17;95.74;94223.97;5061761;28;20461;-77
2021/12/04 12:33:02;;;;;;;5.03;1.75;;;;;;;7.25;95.05;94217.41;5091645;28;20131;-77
2021/12/04 12:38:29;;;;;;;4.63;1.70;;;;;;;7.40;94.30;94214.78;5092359;28;20052;-77
2021/12/04 12:41:00;;;;;;;5.82;1.85;;;;;;;7.45;94.13;94180.78;5091655;28;20051;-75
2021/12/04 12:43:36;;;;;;;5.38;1.80;;;;;;;7.29;94.59;94193.09;5084372;28;20067;-76
2021/12/04 12:46:02;;;;;;;5.47;1.88;;;;;;;7.29;94.90;94194.94;5078185;28;20535;-78
2021/12/04 12:48:28;;;;;;;5.07;1.52;;;;;;;7.25;95.25;94201.72;5059295;28;20045;-77
2021/12/04 12:51:07;;;;;;;4.57;1.60;;;;;;;7.24;95.21;94197.56;5080126;28;20079;-77
2021/12/04 12:53:40;;;;;;;5.18;1.52;;;;;;;7.25;95.40;94202.50;5079610;28;20043;-77
2021/12/04 12:56:09;;;;;;;5.55;1.40;;;;;;;7.19;96.02;94200.94;5076838;28;20048;-77
2021/12/04 12:58:44;;;;;;;3.55;1.50;;;;;;;7.20;96.67;94199.13;5076987;28;20040;-75
2021/12/04 13:12:46;;;;;;;3.35;1.17;;;;;;;7.14;94.61;94184.50;5077797;28;20064;-76
2021/12/04 13:15:14;;;;;;;3.50;1.20;;;;;;;7.16;94.78;94208.53;5080922;28;20436;-77
2021/12/04 13:17:41;;;;;;;3.25;1.20;;;;;;;7.13;94.96;94209.84;5077513;28;20045;-77
2021/12/04 13:20:08;;;;;;;3.13;1.07;;;;;;;7.12;94.60;94210.13;5059243;28;20041;-77
2021/12/04 13:22:35;;;;;;;3.35;1.20;;;;;;;7.14;94.79;94215.84;5076639;28;20772;-76
2021/12/04 13:25:04;;;;;;;3.70;1.17;;;;;;;7.21;94.55;94213.75;5076336;28;20411;-76
2021/12/04 13:29:59;;;;;;;2.03;1.00;;;;;;;7.18;94.50;94216.91;5076698;28;20052;-77
2021/12/04 13:32:29;;;;;;;3.78;1.05;;;;;;;7.14;94.92;94208.78;5076346;28;20033;-76
2021/12/04 13:34:57;;;;;;;3.00;1.23;;;;;;;7.08;94.37;94191.56;5075691;28;20040;-77
2021/12/04 13:37:25;;;;;;;3.15;1.10;;;;;;;7.12;94.65;94212.72;5058447;28;20481;-77
2021/12/04 13:39:56;;;;;;;5.00;1.42;;;;;;;7.10;95.08;94210.38;5077111;28;20045;-77
2021/12/04 13:42:22;;;;;;;2.60;1.17;;;;;;;7.01;95.01;94215.34;5076279;28;20040;-78
2021/12/04 13:44:50;;;;;;;3.30;1.20;;;;;;;7.04;94.75;94214.81;5057884;28;20045;-76
2021/12/04 13:47:16;;;;;;;4.82;1.38;;;;;;;7.07;94.52;94211.69;5076544;28;20071;-76
2021/12/04 13:49:54;;;;;;;3.97;1.38;;;;;;;7.02;95.07;94209.06;5075952;28;20059;-76
2021/12/04 13:52:21;;;;;;;6.03;1.33;;;;;;;6.95;94.94;94219.00;5077751;28;20092;-76
2021/12/04 13:54:49;;;;;;;3.30;1.20;;;;;;;6.99;95.50;94220.03;5076740;28;20411;-75
2021/12/04 13:57:16;;;;;;;;;;;;;;;7.06;94.94;94215.34;5075742;28;20052;-76
2021/12/04 13:59:42;;;;;;;4.57;1.40;;;;;;;6.99;95.64;94225.25;5077389;28;19968;-76
2021/12/04 14:02:19;;;;;;;4.40;1.38;;;;;;;7.01;96.02;94220.56;5059144;28;20041;-76
2021/12/04 14:04:54;;;;;;;4.53;1.30;;;;;;;6.97;96.22;94210.91;5076560;28;20090;-77
2021/12/04 14:07:19;;;;;;;4.30;1.33;;;;;;;7.00;96.10;94207.78;5076772;28;20110;-77
2021/12/04 14:09:47;;;;;;;3.72;1.40;;;;;;;6.89;96.53;94220.06;5076835;28;20072;-76
2021/12/04 14:12:13;;;;;;;;;;;;;;;6.91;96.52;94211.94;5078617;28;20028;-76
2021/12/04 14:14:40;;;;;;;3.97;1.40;;;;;;;6.96;95.83;94211.94;5060720;28;19978;-77
2021/12/04 14:17:13;;;;;;;3.47;1.27;;;;;;;7.00;96.09;94205.94;5077165;28;20040;-77
2021/12/04 14:19:39;;;;;;;7.20;1.30;;;;;;;7.01;95.96;94209.34;5077190;28;20044;-77
2021/12/04 14:22:08;;;;;;;6.72;1.60;;;;;;;6.95;95.69;94205.94;5076484;28;20567;-76
2021/12/04 14:24:37;;;;;;;5.20;1.60;;;;;;;6.96;96.15;94204.88;5075668;28;20405;-75
2021/12/04 14:27:05;;;;;;;4.97;1.42;;;;;;;6.99;95.58;94214.81;5077576;28;20140;-77
2021/12/04 14:29:33;;;;;;;5.43;1.40;;;;;;;6.93;95.90;94213.25;5077259;28;20087;-76
2021/12/04 14:32:00;;;;;;;5.72;1.42;;;;;;;6.95;96.89;94203.34;5079473;28;20036;-76
2021/12/04 14:34:30;;;;;;;4.45;1.40;;;;;;;6.80;97.97;94200.72;5080087;28;20179;-76
2021/12/04 14:37:01;;;;;;;4.22;1.30;;;;;;;6.70;98.41;94190.25;5060809;28;20154;-76
2021/12/04 14:39:27;;;;;;;4.95;1.67;;;;;;;6.68;98.96;94194.97;5057962;28;20393;-76
2021/12/04 14:41:55;;;;;;;4.82;1.52;;;;;;;6.70;99.19;94203.31;5084462;28;20101;-77
2021/12/04 14:44:21;;;;;;;5.22;1.52;;;;;;;6.53;100.00;94204.34;5086747;28;20496;-75
2021/12/04 14:46:50;;;;;;;3.47;1.25;;;;;;;6.47;100.00;94210.59;5077988;28;20109;-76
2021/12/04 14:49:18;;;;;;;5.22;1.50;;;;;;;6.47;100.00;94213.22;5077078;28;20573;-76
2021/12/04 14:51:44;;;;;;;3.78;1.35;;;;;;;6.46;100.00;94216.09;5077623;28;20040;-77
2021/12/04 14:54:10;;;;;;;4.18;1.45;;;;;;;6.40;100.00;94202.22;5080208;28;20032;-76
2021/12/04 14:56:36;;;;;;;4.93;1.30;;;;;;;6.39;100.00;94208.47;5085699;28;20079;-77
2021/12/04 14:59:13;;;;;;;6.88;2.03;;;;;;;6.42;100.00;94217.63;5075784;28;20041;-76
2021/12/04 15:01:39;;;;;;;5.70;1.92;;;;;;;6.42;100.00;94210.59;5058231;28;20123;-76
2021/12/04 15:04:06;;;;;;;5.63;1.80;;;;;;;6.35;100.00;94215.28;5081199;28;20523;-76
2021/12/04 15:06:36;;;;;;;5.22;1.77;;;;;;;6.29;100.00;94218.91;5066866;28;20113;-76
2021/12/04 15:09:07;;;;;;;4.68;1.25;;;;;;;6.25;100.00;94217.88;5068298;28;20480;-78
2021/12/04 15:11:34;;;;;;;2.95;1.05;;;;;;;6.22;100.00;94219.16;5083526;28;20039;-75
2021/12/04 15:14:08;;;;;;;3.38;1.08;;;;;;;6.27;100.00;94213.16;5085457;28;20467;-75
2021/12/04 15:16:40;;;;;;;4.10;1.52;;;;;;;6.22;100.00;94210.53;5085834;28;20044;-77
2021/12/04 15:19:13;;;;;;;2.88;1.15;;;;;;;6.27;100.00;94218.38;5077563;28;20101;-77
2021/12/04 15:21:47;;;;;;;3.38;1.08;;;;;;;6.25;100.00;94225.69;5079061;28;20455;-76
2021/12/04 15:24:21;;;;;;;5.65;1.55;;;;;;;6.31;100.00;94235.09;5078875;28;20491;-77
2021/12/04 15:26:49;;;;;;;4.03;1.30;;;;;;;6.28;100.00;94230.38;5075708;28;20056;-77
2021/12/04 15:29:17;;;;;;;4.90;1.27;;;;;;;6.27;99.97;94226.22;5074417;28;20036;-77
2021/12/04 15:31:43;;;;;;;2.45;1.10;;;;;;;6.38;99.57;94225.19;5075303;28;20131;-77
2021/12/04 15:34:08;;;;;;;3.22;1.15;;;;;;;6.36;98.52;94242.19;5075765;28;20075;-76
2021/12/04 15:36:38;;;;;;;3.63;1.10;;;;;;;6.41;98.88;94242.19;5075666;28;20083;-75
2021/12/04 15:39:14;;;;;;;4.50;1.50;;;;;;;6.34;98.83;94229.34;5076084;28;20052;-76
2021/12/04 15:45:11;;;;;;;5.93;1.60;;;;;;;6.40;98.21;94248.44;5030199;28;20218;-78
2021/12/04 15:53:03;;;;;;;;;;;;;;;;;;;;;
2021/12/04 15:55:33;;;;;;;4.00;1.40;;;;;;;6.38;97.11;94266.97;5076657;28;20051;-77
2021/12/04 15:58:01;;;;;;;4.70;1.65;;;;;;;6.39;97.32;94265.16;5075739;28;20068;-76
2021/12/04 16:00:31;;;;;;;4.90;1.48;;;;;;;6.36;97.49;94270.91;5057078;28;20071;-77
2021/12/04 16:02:59;;;;;;;3.10;1.20;;;;;;;6.41;97.02;94273.53;5074500;28;20036;-76
2021/12/04 16:05:28;;;;;;;3.97;1.48;;;;;;;6.35;97.04;94282.38;5073810;28;20052;-77
2021/12/04 16:08:00;;;;;;;;;;;;;;;6.35;97.78;94272.72;5074559;28;20112;-76
2021/12/04 16:10:27;;;;;;;3.83;1.30;;;;;;;6.30;98.21;94270.88;5074353;28;19985;-76
2021/12/04 16:12:57;;;;;;;5.25;1.40;;;;;;;6.25;98.33;94259.63;5076333;28;20045;-76
2021/12/04 16:15:25;;;;;;;3.65;1.25;;;;;;;6.13;99.55;94265.06;5055950;28;20086;-76
2021/12/04 16:17:51;;;;;;;;;;;;;;;6.07;100.00;94260.06;5074741;28;20048;-76
2021/12/04 16:20:19;;;;;;;3.75;1.20;;;;;;;6.01;100.00;94260.03;5075727;28;19943;-76
2021/12/04 16:22:46;;;;;;;4.40;1.50;;;;;;;6.01;100.00;94273.09;5077897;28;20032;-76
2021/12/04 16:25:14;;;;;;;4.53;1.55;;;;;;;5.95;100.00;94274.13;5077887;28;20049;-77
2021/12/04 16:32:56;;;;;;;8.55;2.70;;;;;;;5.89;100.00;94280.31;5090533;28;20047;-76
2021/12/04 16:37:59;;;;;;;5.65;1.60;;;;;;;5.94;100.00;94250.88;5077693;28;20412;-76